Time;durP1;ratioP1;P1;durP2;ratioP2;P2;SDS_P1;SDS_P2;PMS_P1;PMS_P2;Temp;Humidity;BMP_temperature;BMP_pressure;BME280_temperature;BME280_humidity;BME280_pressure;Samples;Min_cycle;Max_cycle;Signal;HPM_P1;HPM_P2
2023/06/16 00:00:12;;;;;;;8.90;7.93;;;;;;;17.17;68.77;100945.31;4998449;28;20058;-80
2023/06/16 00:02:41;;;;;;;9.30;7.38;;;;;;;17.18;69.06;100940.84;4992662;28;20054;-80
2023/06/16 00:05:09;;;;;;;13.43;7.85;;;;;;;17.16;68.82;100948.13;5001266;28;20050;-78
2023/06/16 00:07:36;;;;;;;12.90;8.18;;;;;;;17.20;68.78;100944.09;4999849;28;20050;-79
2023/06/16 00:10:03;;;;;;;13.25;8.52;;;;;;;17.22;68.55;100944.72;4990787;28;20097;-77
2023/06/16 00:12:30;;;;;;;10.05;7.72;;;;;;;17.16;68.85;100950.78;4999872;28;20137;-79
2023/06/16 00:14:58;;;;;;;13.55;7.63;;;;;;;17.13;68.71;100951.16;4992923;28;20072;-79
2023/06/16 00:17:26;;;;;;;11.07;7.82;;;;;;;17.18;68.05;100949.56;4996630;28;20093;-78
2023/06/16 00:19:55;;;;;;;10.45;7.75;;;;;;;17.11;67.94;100955.81;4984684;28;20051;-77
2023/06/16 00:22:22;;;;;;;10.13;7.60;;;;;;;17.04;67.87;100958.41;4985314;28;20051;-77
2023/06/16 00:24:48;;;;;;;10.20;8.05;;;;;;;17.06;67.74;100960.84;5010912;28;20066;-80
2023/06/16 00:27:15;;;;;;;11.57;8.00;;;;;;;17.01;67.95;100968.56;4994754;28;20050;-79
2023/06/16 00:29:42;;;;;;;9.40;7.72;;;;;;;17.08;68.47;100969.41;4995946;28;20081;-79
2023/06/16 00:32:10;;;;;;;9.52;7.85;;;;;;;17.01;68.18;100968.56;4979152;28;20110;-79
2023/06/16 00:34:36;;;;;;;13.10;8.40;;;;;;;16.92;68.37;100968.69;4991724;28;20054;-78
2023/06/16 00:37:03;;;;;;;14.13;9.27;;;;;;;16.83;69.05;100974.28;4984623;28;20085;-79
2023/06/16 00:39:30;;;;;;;11.32;7.47;;;;;;;16.66;69.92;100976.34;4999271;28;20046;-78
2023/06/16 00:41:57;;;;;;;12.13;7.63;;;;;;;16.55;70.49;100968.88;4992357;28;20106;-76
2023/06/16 00:44:24;;;;;;;9.25;7.60;;;;;;;16.47;71.00;100972.47;4996963;28;20058;-80
2023/06/16 00:46:50;;;;;;;9.48;8.02;;;;;;;16.46;71.36;100967.38;5002081;28;20109;-78
2023/06/16 00:49:19;;;;;;;11.65;8.13;;;;;;;16.36;71.39;100964.19;4988463;28;20046;-79
2023/06/16 00:51:49;;;;;;;12.77;8.77;;;;;;;16.24;71.57;100967.31;4992021;28;20074;-79
2023/06/16 00:54:16;;;;;;;10.70;8.07;;;;;;;16.18;71.68;100969.88;4993242;28;20078;-79
2023/06/16 00:56:45;;;;;;;13.57;7.80;;;;;;;16.11;71.65;100964.50;4994939;28;20053;-78
2023/06/16 00:59:11;;;;;;;10.48;7.75;;;;;;;16.14;71.48;100961.50;4995267;28;20118;-79
2023/06/16 01:01:39;;;;;;;12.80;7.80;;;;;;;16.13;71.17;100945.84;5003523;28;20086;-78
2023/06/16 01:04:06;;;;;;;13.20;8.23;;;;;;;16.27;70.68;100963.47;4996020;28;20054;-79
2023/06/16 01:06:45;;;;;;;13.32;8.52;;;;;;;16.36;70.30;100958.91;4997937;28;20085;-78
2023/06/16 01:09:20;;;;;;;12.95;7.60;;;;;;;16.44;70.03;100953.53;5000598;28;20047;-79
2023/06/16 01:11:55;;;;;;;10.13;7.50;;;;;;;16.47;69.64;100947.88;4992798;28;20133;-79
2023/06/16 01:14:30;;;;;;;10.23;7.82;;;;;;;16.47;69.61;100950.50;4992679;28;20069;-78
2023/06/16 01:16:58;;;;;;;10.98;7.78;;;;;;;16.51;69.32;100957.06;4998381;28;20065;-79
2023/06/16 01:19:37;;;;;;;13.82;8.65;;;;;;;16.40;69.85;100957.53;4994924;28;20068;-77
2023/06/16 01:22:10;;;;;;;13.95;8.00;;;;;;;16.26;70.28;100957.38;4999245;28;20050;-77
2023/06/16 01:24:42;;;;;;;9.90;8.50;;;;;;;16.23;70.83;100963.03;4990900;28;20078;-79
2023/06/16 01:27:10;;;;;;;11.23;8.07;;;;;;;16.22;71.18;100969.31;4996658;28;20085;-78
2023/06/16 01:29:39;;;;;;;10.80;8.30;;;;;;;16.25;70.99;100976.06;4999650;28;20133;-76
2023/06/16 01:32:09;;;;;;;11.38;7.90;;;;;;;16.20;71.14;100971.31;4998133;28;20053;-79
2023/06/16 01:34:36;;;;;;;10.45;8.02;;;;;;;16.20;70.81;100968.69;4999544;28;20095;-79
2023/06/16 01:37:05;;;;;;;12.48;8.20;;;;;;;16.06;71.27;100966.91;4998792;28;20089;-79
2023/06/16 01:39:33;;;;;;;12.57;8.05;;;;;;;16.07;71.58;100970.34;4982891;28;20209;-80
2023/06/16 01:42:02;;;;;;;11.77;8.10;;;;;;;16.11;71.50;100974.25;4989107;28;20065;-78
2023/06/16 01:44:31;;;;;;;15.43;8.50;;;;;;;16.06;71.60;100966.91;4991217;28;20141;-78
2023/06/16 01:46:58;;;;;;;10.50;8.60;;;;;;;15.93;71.98;100969.34;4988292;28;20440;-78
2023/06/16 01:49:25;;;;;;;16.25;9.15;;;;;;;15.92;72.11;100971.19;4999016;28;20589;-79
2023/06/16 01:51:51;;;;;;;11.07;8.80;;;;;;;15.90;72.33;100975.81;4994770;28;20552;-78
2023/06/16 01:54:18;;;;;;;10.00;8.45;;;;;;;15.72;72.81;100972.72;4992466;28;20270;-79
2023/06/16 01:56:44;;;;;;;15.90;8.48;;;;;;;15.72;73.04;100979.81;4994860;28;20081;-79
2023/06/16 01:59:13;;;;;;;13.50;8.82;;;;;;;15.40;73.69;100978.28;5000398;28;20074;-79
2023/06/16 02:01:48;;;;;;;12.23;8.73;;;;;;;15.46;74.03;100975.75;5000264;28;20058;-77
2023/06/16 02:04:16;;;;;;;13.15;8.63;;;;;;;15.46;74.19;100973.13;5001141;28;20057;-79
2023/06/16 02:06:48;;;;;;;16.85;8.98;;;;;;;15.39;74.42;100980.09;4999895;28;20057;-79
2023/06/16 02:09:17;;;;;;;12.93;9.70;;;;;;;15.32;74.46;100981.81;5000490;28;20097;-77
2023/06/16 02:11:44;;;;;;;13.90;8.75;;;;;;;15.30;74.62;100982.97;4988326;28;20110;-78
2023/06/16 02:14:13;;;;;;;11.27;8.68;;;;;;;15.17;75.28;100986.22;4993926;28;20464;-81
2023/06/16 02:16:42;;;;;;;11.85;8.88;;;;;;;15.09;75.69;100986.31;5001204;28;20546;-79
2023/06/16 02:19:09;;;;;;;13.25;9.27;;;;;;;15.09;75.76;100981.84;5008736;28;20085;-79
2023/06/16 02:21:36;;;;;;;12.63;8.80;;;;;;;15.13;75.60;100983.09;5005614;28;20141;-79
2023/06/16 02:24:03;;;;;;;12.88;8.60;;;;;;;15.13;75.62;100982.28;4990224;28;20043;-79
2023/06/16 02:26:30;;;;;;;11.20;8.45;;;;;;;15.17;75.41;100983.56;4998460;28;20138;-80
2023/06/16 02:28:57;;;;;;;9.98;8.55;;;;;;;15.18;75.27;100986.03;4995720;28;20401;-79
2023/06/16 02:31:25;;;;;;;15.75;8.85;;;;;;;15.12;75.35;100975.41;4998510;28;20084;-80
2023/06/16 02:33:55;;;;;;;11.48;9.18;;;;;;;15.04;75.50;100988.66;4988088;28;20055;-80
2023/06/16 02:36:22;;;;;;;13.90;8.30;;;;;;;15.03;75.66;100987.00;4992899;28;20137;-80
2023/06/16 02:38:49;;;;;;;12.05;8.65;;;;;;;15.08;75.63;100989.94;4996816;28;20089;-81
2023/06/16 02:41:16;;;;;;;11.23;8.73;;;;;;;15.20;75.60;100988.50;5000600;28;20056;-81
2023/06/16 02:43:43;;;;;;;12.50;8.75;;;;;;;15.23;75.79;100982.88;4993729;28;20058;-81
2023/06/16 02:46:09;;;;;;;11.52;8.45;;;;;;;15.12;75.82;100976.19;5001952;28;20073;-81
2023/06/16 02:48:37;;;;;;;10.93;8.98;;;;;;;15.12;75.55;100978.84;4994796;28;20070;-82
2023/06/16 02:51:04;;;;;;;11.25;8.07;;;;;;;15.09;75.58;100991.56;4994651;28;20133;-81
2023/06/16 02:53:34;;;;;;;15.07;8.35;;;;;;;15.05;75.82;100985.84;5001467;28;20129;-82
2023/06/16 02:56:00;;;;;;;12.55;9.25;;;;;;;15.01;75.89;100987.19;4989293;28;20050;-79
2023/06/16 02:58:27;;;;;;;10.30;7.85;;;;;;;15.06;75.87;100987.47;5002710;23;20049;-86
2023/06/16 03:00:53;;;;;;;10.02;8.43;;;;;;;15.06;75.98;100981.38;5020344;28;20109;-86
2023/06/16 03:03:20;;;;;;;10.63;8.48;;;;;;;15.04;76.05;100970.19;5022467;28;20544;-86
2023/06/16 03:05:48;;;;;;;14.70;8.30;;;;;;;15.06;76.10;100986.66;5020815;28;20128;-85
2023/06/16 03:08:15;;;;;;;12.80;7.95;;;;;;;15.06;75.96;100982.19;5019895;28;20488;-87
2023/06/16 03:10:42;;;;;;;12.20;8.02;;;;;;;15.09;75.79;100983.66;5019968;28;20408;-87
2023/06/16 03:13:09;;;;;;;16.42;8.43;;;;;;;15.10;75.83;100974.75;5021872;28;20049;-88
2023/06/16 03:15:36;;;;;;;11.82;8.88;;;;;;;15.12;75.97;100986.75;5021378;28;20066;-87
2023/06/16 03:18:03;;;;;;;14.77;8.40;;;;;;;15.15;75.96;100988.19;5021089;28;20049;-86
2023/06/16 03:20:29;;;;;;;13.80;8.52;;;;;;;15.12;75.93;100985.94;5021846;28;20129;-86
2023/06/16 03:22:57;;;;;;;21.20;8.43;;;;;;;15.10;76.18;100990.59;5020958;28;20087;-86
2023/06/16 03:25:24;;;;;;;14.32;8.82;;;;;;;15.14;75.76;100989.19;5021429;28;20046;-86
2023/06/16 03:27:51;;;;;;;9.43;8.00;;;;;;;15.14;75.59;100981.28;5020919;28;20046;-88
2023/06/16 03:30:18;;;;;;;11.98;8.20;;;;;;;15.15;75.65;100990.84;5020234;28;20481;-87
2023/06/16 03:32:45;;;;;;;11.18;8.43;;;;;;;15.18;75.62;100991.31;5019903;28;20105;-86
2023/06/16 03:35:15;;;;;;;13.10;7.90;;;;;;;15.20;75.47;100988.50;5019563;28;20064;-87
2023/06/16 03:37:41;;;;;;;13.80;7.85;;;;;;;15.26;75.34;100995.69;5021819;28;20054;-86
2023/06/16 03:40:10;;;;;;;9.32;7.78;;;;;;;15.32;75.26;100987.09;5020684;28;20096;-87
2023/06/16 03:42:37;;;;;;;10.77;8.43;;;;;;;15.31;75.35;100982.81;5020889;28;20073;-85
2023/06/16 03:45:04;;;;;;;14.27;8.15;;;;;;;15.16;75.64;100987.22;5020146;28;20056;-86
2023/06/16 03:47:31;;;;;;;10.48;8.38;;;;;;;15.12;76.10;100999.13;5019492;28;20050;-87
2023/06/16 03:49:58;;;;;;;14.65;8.77;;;;;;;15.22;75.80;100997.03;5020369;28;20080;-86
2023/06/16 03:52:25;;;;;;;16.02;8.82;;;;;;;15.31;75.36;100996.00;5020411;28;20085;-85
2023/06/16 03:54:52;;;;;;;11.60;8.38;;;;;;;15.42;75.16;100992.94;5020525;28;20180;-85
2023/06/16 03:57:20;;;;;;;13.25;8.75;;;;;;;15.49;75.07;100999.13;5030846;23;20137;-84
2023/06/16 03:59:47;;;;;;;11.65;7.95;;;;;;;15.56;75.06;100994.81;5010755;28;20114;-83
2023/06/16 04:02:13;;;;;;;14.40;9.20;;;;;;;15.56;74.60;100993.97;5011807;28;20111;-84
2023/06/16 04:04:42;;;;;;;15.75;8.40;;;;;;;15.91;74.27;100990.66;5014894;28;20046;-83
2023/06/16 04:07:11;;;;;;;12.77;8.25;;;;;;;16.71;72.48;101000.38;4990356;28;20054;-84
2023/06/16 04:09:38;;;;;;;13.90;7.80;;;;;;;17.46;69.94;100972.59;4990189;28;20493;-84
2023/06/16 04:12:06;;;;;;;9.27;8.25;;;;;;;18.19;67.59;100973.84;4998665;28;20074;-84
2023/06/16 04:14:34;;;;;;;12.88;8.63;;;;;;;18.73;65.78;100981.78;4996851;28;20050;-84
2023/06/16 04:17:00;;;;;;;13.10;8.45;;;;;;;19.09;64.29;100977.94;4996946;28;20112;-84
2023/06/16 04:19:28;;;;;;;15.70;8.38;;;;;;;19.22;63.59;100978.78;4988019;28;20047;-84
2023/06/16 04:21:58;;;;;;;14.52;8.10;;;;;;;19.14;63.67;100978.16;4991341;28;20054;-84
2023/06/16 04:24:27;;;;;;;11.35;7.93;;;;;;;19.35;63.24;100964.69;4994952;28;20046;-84
2023/06/16 04:27:02;;;;;;;15.98;8.18;;;;;;;19.29;62.77;100954.91;4991306;28;20055;-85
2023/06/16 04:29:31;;;;;;;11.20;7.75;;;;;;;18.73;63.76;100949.97;4982525;28;20054;-84
2023/06/16 04:32:00;;;;;;;14.32;8.32;;;;;;;18.66;64.89;100983.59;4995451;28;20061;-85
2023/06/16 04:34:31;;;;;;;14.73;8.00;;;;;;;18.46;65.13;100961.50;4992155;28;20069;-84
2023/06/16 04:36:58;;;;;;;10.70;8.07;;;;;;;18.60;65.10;100992.34;4997390;28;20049;-84
2023/06/16 04:39:24;;;;;;;11.65;7.75;;;;;;;18.55;65.17;100994.75;4994377;28;20082;-84
2023/06/16 04:41:51;;;;;;;13.93;8.13;;;;;;;18.39;65.62;101000.41;4991754;28;20051;-83
2023/06/16 04:44:18;;;;;;;11.98;8.15;;;;;;;18.66;65.74;101007.47;4991163;28;20046;-83
2023/06/16 04:46:47;;;;;;;14.00;7.93;;;;;;;19.61;63.11;100995.72;5001192;28;20046;-89
2023/06/16 04:49:15;;;;;;;12.30;8.57;;;;;;;19.75;61.99;100991.22;5001129;28;20050;-86
2023/06/16 04:51:44;;;;;;;12.93;8.23;;;;;;;19.34;63.04;100992.25;4998820;28;20046;-84
2023/06/16 04:57:56;;;;;;;16.58;8.30;;;;;;;18.96;64.09;100999.16;5018594;23;20085;-79
2023/06/16 05:00:23;;;;;;;11.65;7.70;;;;;;;19.38;63.62;101000.59;5012457;28;20054;-78
2023/06/16 05:02:49;;;;;;;13.13;8.25;;;;;;;19.50;63.17;100985.69;5008964;28;20066;-79
2023/06/16 05:05:17;;;;;;;11.15;7.97;;;;;;;19.85;63.10;100986.25;5000033;28;20160;-79
2023/06/16 05:07:44;;;;;;;11.50;7.38;;;;;;;20.01;62.08;100988.47;5015328;28;20502;-78
2023/06/16 05:10:11;;;;;;;13.15;8.50;;;;;;;19.90;61.69;100975.84;5012472;28;20179;-79
2023/06/16 05:12:37;;;;;;;12.25;8.00;;;;;;;20.04;61.46;100982.75;4996641;28;20134;-78
2023/06/16 05:15:05;;;;;;;10.95;8.50;;;;;;;20.62;60.85;100972.09;4989014;28;20150;-77
2023/06/16 05:17:31;;;;;;;13.85;8.43;;;;;;;20.97;60.34;100985.75;5013162;28;20496;-77
2023/06/16 05:19:58;;;;;;;10.15;8.07;;;;;;;21.76;58.15;100961.13;5001737;28;20047;-78
2023/06/16 05:22:26;;;;;;;11.30;7.88;;;;;;;22.33;56.96;100968.88;4997722;28;20137;-78
2023/06/16 05:24:56;;;;;;;13.48;7.93;;;;;;;22.29;57.57;100973.03;5004951;28;20053;-78
2023/06/16 05:27:30;;;;;;;13.05;7.43;;;;;;;23.49;55.30;100979.84;4999676;28;20043;-78
2023/06/16 05:30:00;;;;;;;10.80;8.02;;;;;;;24.18;54.13;100985.31;4999539;28;20054;-79
2023/06/16 05:32:30;;;;;;;13.75;7.57;;;;;;;24.79;52.63;100984.63;4992840;28;20134;-79
2023/06/16 05:35:01;;;;;;;13.55;7.75;;;;;;;25.48;51.20;100991.66;5022920;28;20054;-80
2023/06/16 05:37:29;;;;;;;16.40;8.20;;;;;;;25.40;50.57;100985.66;5008726;28;20044;-78
2023/06/16 05:39:56;;;;;;;12.70;8.00;;;;;;;25.64;50.52;100990.81;5008134;28;20056;-79
2023/06/16 05:42:22;;;;;;;9.75;7.70;;;;;;;25.76;50.11;100988.84;5004440;28;20149;-79
2023/06/16 05:44:49;;;;;;;12.80;7.90;;;;;;;25.99;49.51;100988.63;5005830;28;20101;-79
2023/06/16 05:47:16;;;;;;;14.65;7.35;;;;;;;26.43;49.29;100997.47;5011430;28;20074;-79
2023/06/16 05:49:42;;;;;;;9.73;6.85;;;;;;;26.49;49.24;100992.94;4994887;28;20453;-79
2023/06/16 05:52:09;;;;;;;10.18;7.15;;;;;;;26.93;48.28;100988.28;5013455;28;20512;-76
2023/06/16 05:54:37;;;;;;;12.88;7.80;;;;;;;26.78;48.54;100986.28;5012128;28;20088;-77
2023/06/16 05:57:05;;;;;;;9.95;7.10;;;;;;;27.52;48.20;100996.25;5013068;28;20486;-79
2023/06/16 05:59:31;;;;;;;10.73;7.10;;;;;;;27.78;47.48;100991.88;4994549;28;20068;-78
2023/06/16 06:01:58;;;;;;;13.23;7.35;;;;;;;27.71;47.54;100993.97;4980310;28;20042;-78
2023/06/16 06:04:28;;;;;;;14.30;7.95;;;;;;;28.00;45.66;101000.56;4985070;28;20078;-77
2023/06/16 06:06:55;;;;;;;11.32;7.20;;;;;;;28.20;45.77;100996.34;4985576;28;20054;-76
2023/06/16 06:09:24;;;;;;;11.70;7.07;;;;;;;28.05;44.60;101005.97;4985041;28;20133;-76
2023/06/16 06:11:53;;;;;;;12.25;7.07;;;;;;;27.18;46.36;100995.75;4988762;28;20153;-77
2023/06/16 06:14:20;;;;;;;12.25;7.18;;;;;;;27.42;45.50;100996.19;4984657;28;20046;-77
2023/06/16 06:16:47;;;;;;;11.68;7.30;;;;;;;28.03;44.95;101002.72;4985915;28;20049;-77
2023/06/16 06:19:13;;;;;;;8.30;6.40;;;;;;;27.79;45.05;101006.94;4983733;28;20138;-77
2023/06/16 06:21:40;;;;;;;11.57;7.13;;;;;;;27.70;44.29;100998.56;4989903;28;20081;-76
2023/06/16 06:24:07;;;;;;;8.43;6.63;;;;;;;27.68;44.08;101003.38;4983070;28;20141;-77
2023/06/16 06:26:33;;;;;;;11.30;6.88;;;;;;;27.46;43.87;100997.28;4987826;28;20068;-77
2023/06/16 06:29:01;;;;;;;9.73;6.70;;;;;;;27.07;44.44;100989.50;4983941;28;20152;-77
2023/06/16 06:31:28;;;;;;;9.45;6.60;;;;;;;28.17;43.76;100996.88;4983206;28;20582;-76
2023/06/16 06:33:55;;;;;;;9.30;7.10;;;;;;;28.69;42.75;100997.56;4983013;28;20055;-77
2023/06/16 06:36:22;;;;;;;11.95;7.30;;;;;;;28.59;43.11;101011.00;4979960;28;20050;-76
2023/06/16 06:38:49;;;;;;;13.82;6.50;;;;;;;28.76;43.07;101009.97;4983784;28;20095;-77
2023/06/16 06:41:17;;;;;;;11.63;7.35;;;;;;;28.44;42.59;101007.47;4976596;28;20042;-77
2023/06/16 06:43:44;;;;;;;8.00;6.72;;;;;;;28.30;43.19;100999.09;4980126;28;20042;-77
2023/06/16 06:46:12;;;;;;;14.10;6.80;;;;;;;28.70;43.89;101012.66;4979078;28;20523;-77
2023/06/16 06:48:38;;;;;;;9.15;6.85;;;;;;;28.66;43.77;101021.53;4986323;28;20046;-76
2023/06/16 06:51:05;;;;;;;11.82;7.05;;;;;;;29.03;43.32;101016.72;4991898;28;20137;-77
2023/06/16 06:53:32;;;;;;;8.73;6.85;;;;;;;28.85;44.07;101019.13;4990911;28;20108;-77
2023/06/16 06:55:59;;;;;;;7.73;6.57;;;;;;;29.27;43.28;101018.91;4950238;28;1114911;-77
2023/06/16 06:58:25;;;;;;;10.65;6.20;;;;;;;30.09;40.97;101020.34;4986829;28;20097;-77
2023/06/16 07:00:52;;;;;;;8.05;6.22;;;;;;;29.82;41.72;101026.06;4991091;28;20488;-77
2023/06/16 07:03:20;;;;;;;10.25;6.50;;;;;;;29.96;41.62;101021.72;4989452;28;20043;-76
2023/06/16 07:05:47;;;;;;;10.50;5.93;;;;;;;29.86;40.90;101018.25;4987350;28;20072;-77
2023/06/16 07:08:13;;;;;;;13.18;6.97;;;;;;;29.78;41.60;101014.22;4997760;28;20049;-77
2023/06/16 07:10:40;;;;;;;9.75;6.55;;;;;;;29.27;41.88;101016.19;4982439;28;20074;-77
2023/06/16 07:13:07;;;;;;;7.78;6.47;;;;;;;29.86;41.07;101024.44;4992709;28;20046;-78
2023/06/16 07:15:33;;;;;;;14.07;6.30;;;;;;;29.63;40.91;101017.78;5007247;28;20082;-77
2023/06/16 07:18:00;;;;;;;9.82;6.88;;;;;;;30.08;40.20;101017.94;4991873;28;20046;-77
2023/06/16 07:20:28;;;;;;;11.68;6.57;;;;;;;30.53;40.45;101020.38;4992439;28;20177;-77
2023/06/16 07:22:54;;;;;;;7.85;6.38;;;;;;;29.95;40.64;101013.88;4990809;28;20046;-78
2023/06/16 07:25:21;;;;;;;9.10;6.28;;;;;;;30.06;41.06;101022.78;4996333;28;20129;-78
2023/06/16 07:27:48;;;;;;;9.32;5.93;;;;;;;29.94;40.37;101020.38;4996114;28;20377;-78
2023/06/16 07:30:14;;;;;;;9.55;6.18;;;;;;;30.29;40.89;101028.34;5003822;28;20117;-77
2023/06/16 07:32:41;;;;;;;9.02;6.40;;;;;;;30.43;40.79;101023.13;5008878;28;20070;-80
2023/06/16 07:35:09;;;;;;;8.98;6.50;;;;;;;30.81;39.83;101016.16;5001782;28;20105;-78
2023/06/16 07:37:37;;;;;;;9.98;6.03;;;;;;;30.76;39.69;101013.50;4994815;28;20051;-79
2023/06/16 07:40:06;;;;;;;8.10;5.80;;;;;;;30.78;39.85;101015.91;4989441;28;20153;-77
2023/06/16 07:42:33;;;;;;;8.25;5.85;;;;;;;30.62;40.08;101018.75;4992938;28;20062;-78
2023/06/16 07:45:00;;;;;;;13.68;6.53;;;;;;;30.34;41.59;101036.41;4981551;28;20051;-78
2023/06/16 07:47:26;;;;;;;11.35;6.80;;;;;;;30.73;40.43;101021.34;4980193;28;20055;-79
2023/06/16 07:49:53;;;;;;;10.10;5.97;;;;;;;30.84;40.42;101018.31;4991801;28;20416;-78
2023/06/16 07:52:20;;;;;;;8.95;6.03;;;;;;;30.56;40.38;101019.03;4991864;28;20074;-79
2023/06/16 07:54:47;;;;;;;7.15;6.05;;;;;;;29.29;39.70;101000.56;4986991;28;20129;-78
2023/06/16 07:57:14;;;;;;;8.82;6.15;;;;;;;30.17;39.35;101011.69;4993210;28;20050;-78
2023/06/16 07:59:41;;;;;;;8.50;6.10;;;;;;;28.99;40.54;101001.38;4992985;28;20054;-78
2023/06/16 08:02:07;;;;;;;10.80;6.10;;;;;;;30.00;40.67;101017.41;4991248;28;20077;-77
2023/06/16 08:04:34;;;;;;;10.25;6.25;;;;;;;29.83;41.20;101008.81;4993244;28;20138;-78
2023/06/16 08:07:01;;;;;;;8.73;6.30;;;;;;;28.76;41.71;100999.19;4985698;28;20089;-78
2023/06/16 08:09:28;;;;;;;12.93;7.03;;;;;;;29.84;40.82;101010.41;4992821;28;20129;-78
2023/06/16 08:11:56;;;;;;;11.75;7.55;;;;;;;28.94;42.35;100998.69;4990459;28;20051;-78
2023/06/16 08:14:24;;;;;;;13.80;8.02;;;;;;;29.25;41.86;101004.88;4986411;28;20540;-78
2023/06/16 08:16:51;;;;;;;10.55;8.10;;;;;;;29.53;41.58;101003.50;4996444;28;20050;-78
2023/06/16 08:19:18;;;;;;;13.10;9.10;;;;;;;29.80;41.66;101003.94;4997228;28;20050;-78
2023/06/16 08:21:44;;;;;;;14.52;8.88;;;;;;;30.28;40.82;101001.63;4994900;28;20050;-78
2023/06/16 08:24:11;;;;;;;10.60;8.30;;;;;;;30.89;40.32;100988.53;4995459;28;20047;-78
2023/06/16 08:26:38;;;;;;;12.95;8.43;;;;;;;30.89;40.97;100998.53;4993677;28;20113;-78
2023/06/16 08:29:06;;;;;;;8.50;6.47;;;;;;;30.14;38.48;100989.84;4997678;28;20544;-79
2023/06/16 08:31:33;;;;;;;12.27;8.75;;;;;;;29.80;40.96;100997.75;4998013;28;20050;-80
2023/06/16 08:34:01;;;;;;;12.50;8.43;;;;;;;30.66;40.21;100973.06;4992177;28;20046;-78
2023/06/16 08:36:27;;;;;;;10.90;9.07;;;;;;;29.91;41.45;100996.63;4990454;28;20140;-79
2023/06/16 08:38:54;;;;;;;11.35;8.90;;;;;;;30.13;42.44;100999.81;4990624;28;20050;-77
2023/06/16 08:41:22;;;;;;;13.02;9.27;;;;;;;30.21;41.75;100995.75;4989875;28;20137;-77
2023/06/16 08:43:50;;;;;;;10.35;8.13;;;;;;;30.48;41.85;100998.00;4991388;28;20100;-76
2023/06/16 08:46:18;;;;;;;10.50;7.25;;;;;;;29.91;41.37;100983.16;4990355;28;20081;-77
2023/06/16 08:48:45;;;;;;;15.05;8.48;;;;;;;29.19;41.55;100981.72;4989390;28;20134;-77
2023/06/16 08:51:15;;;;;;;14.38;7.82;;;;;;;30.11;41.78;100998.47;4983257;28;20050;-77
2023/06/16 08:53:43;;;;;;;11.45;7.82;;;;;;;30.51;41.12;100992.84;4983180;28;20046;-77
2023/06/16 08:56:11;;;;;;;9.52;7.55;;;;;;;30.83;40.30;100976.16;4990776;28;20046;-77
2023/06/16 08:58:40;;;;;;;15.02;7.55;;;;;;;30.96;40.65;100977.41;4988715;28;20073;-78
2023/06/16 09:01:07;;;;;;;10.98;7.32;;;;;;;31.05;40.00;100986.53;4990907;28;20050;-78
2023/06/16 09:03:37;;;;;;;8.70;6.20;;;;;;;28.76;38.49;100974.94;4990765;28;20432;-77
2023/06/16 09:06:04;;;;;;;8.27;6.50;;;;;;;27.62;40.63;100979.41;4990867;28;20047;-77
2023/06/16 09:08:31;;;;;;;11.45;6.35;;;;;;;28.07;39.89;100970.75;4990374;28;20050;-76
2023/06/16 09:10:58;;;;;;;8.23;5.95;;;;;;;28.41;39.55;100982.69;4989378;28;20050;-77
2023/06/16 09:13:25;;;;;;;7.93;6.60;;;;;;;28.69;39.44;100967.13;4991214;28;20066;-78
2023/06/16 09:15:52;;;;;;;9.20;6.40;;;;;;;29.61;39.90;100979.50;4993279;28;20053;-77
2023/06/16 09:18:18;;;;;;;10.80;6.50;;;;;;;30.75;38.61;100984.06;4982548;28;20054;-76
2023/06/16 09:20:51;;;;;;;8.05;6.72;;;;;;;30.00;38.38;100981.53;4993102;28;20464;-78
2023/06/16 09:23:27;;;;;;;7.70;6.28;;;;;;;29.77;39.14;100968.66;4991725;28;20050;-77
2023/06/16 09:25:54;;;;;;;8.02;6.78;;;;;;;28.45;39.33;100966.81;4999924;28;20049;-76
2023/06/16 09:28:34;;;;;;;7.97;6.05;;;;;;;29.30;38.16;100962.53;5002388;28;20164;-78
2023/06/16 09:31:04;;;;;;;7.72;6.07;;;;;;;29.42;37.79;100964.16;4992592;28;20134;-78
2023/06/16 09:33:31;;;;;;;8.68;6.05;;;;;;;29.60;38.47;100963.59;4994128;28;20065;-76
2023/06/16 09:35:59;;;;;;;10.10;6.43;;;;;;;29.68;37.81;100971.13;4992008;28;20060;-77
2023/06/16 09:38:27;;;;;;;8.85;6.10;;;;;;;29.15;37.61;100970.66;4995903;28;20096;-79
2023/06/16 09:40:55;;;;;;;25.08;8.80;;;;;;;28.74;37.62;100956.38;4991462;28;20054;-79
2023/06/16 09:43:26;;;;;;;9.77;6.07;;;;;;;28.86;38.67;100953.41;4993469;28;20057;-76
2023/06/16 09:46:02;;;;;;;10.75;5.80;;;;;;;29.47;37.48;100961.47;4997765;28;20050;-80
2023/06/16 09:48:36;;;;;;;7.68;5.75;;;;;;;30.46;36.94;100956.97;4994969;28;20505;-78
2023/06/16 09:51:08;;;;;;;9.50;5.90;;;;;;;30.37;36.02;100962.16;4993054;28;20132;-81
2023/06/16 09:53:36;;;;;;;11.57;5.93;;;;;;;30.20;35.00;100953.63;4998394;28;20042;-81
2023/06/16 09:56:03;;;;;;;7.03;5.90;;;;;;;29.09;35.85;100946.69;4996936;28;20046;-78
2023/06/16 09:58:30;;;;;;;12.40;6.20;;;;;;;28.83;36.15;100956.69;4994420;28;20138;-77
2023/06/16 10:00:59;;;;;;;12.75;6.07;;;;;;;28.43;36.12;100947.44;4993871;28;20133;-77
2023/06/16 10:03:27;;;;;;;6.40;5.70;;;;;;;28.99;36.40;100945.59;4991445;28;20038;-76
2023/06/16 10:05:55;;;;;;;8.02;6.18;;;;;;;28.43;36.70;100939.38;4993641;28;20061;-78
2023/06/16 10:08:23;;;;;;;8.23;6.07;;;;;;;28.64;36.79;100942.91;4990521;28;20054;-78
2023/06/16 10:10:53;;;;;;;8.43;6.20;;;;;;;28.67;36.90;100943.16;4990861;28;20564;-78
2023/06/16 10:13:22;;;;;;;6.63;5.70;;;;;;;28.87;37.53;100938.88;4991393;28;20053;-78
2023/06/16 10:15:50;;;;;;;7.32;6.15;;;;;;;28.99;36.61;100940.22;4990982;28;20133;-77
2023/06/16 10:18:18;;;;;;;10.23;6.63;;;;;;;29.10;37.72;100941.03;4989137;28;20046;-77
2023/06/16 10:20:47;;;;;;;11.73;6.13;;;;;;;29.21;36.46;100934.53;4983216;28;20075;-78
2023/06/16 10:23:14;;;;;;;10.07;6.18;;;;;;;28.99;36.96;100934.84;5001763;28;20056;-77
2023/06/16 10:25:45;;;;;;;10.90;6.40;;;;;;;28.02;36.72;100933.88;5000350;28;20058;-78
2023/06/16 10:28:14;;;;;;;10.82;5.93;;;;;;;28.03;37.06;100940.88;5031403;28;20054;-77
2023/06/16 10:30:42;;;;;;;11.43;5.88;;;;;;;27.31;37.99;100941.59;5023548;28;20113;-78
2023/06/16 10:33:21;;;;;;;8.80;6.22;;;;;;;28.35;37.57;100940.72;5014374;28;20045;-76
2023/06/16 10:35:53;;;;;;;8.65;6.00;;;;;;;28.89;37.04;100929.44;5013311;28;20061;-77
2023/06/16 10:38:25;;;;;;;6.80;6.10;;;;;;;29.10;36.61;100927.56;5013577;28;20093;-77
2023/06/16 10:40:58;;;;;;;11.10;6.00;;;;;;;29.49;36.28;100916.16;5012884;28;20177;-78
2023/06/16 10:43:26;;;;;;;6.75;5.55;;;;;;;29.36;36.26;100918.31;5012701;28;20046;-78
2023/06/16 10:46:14;;;;;;;10.00;5.88;;;;;;;29.36;35.46;100922.91;5013194;28;20053;-77
2023/06/16 10:48:57;;;;;;;8.07;5.95;;;;;;;29.38;35.99;100912.66;4986049;28;20085;-77
2023/06/16 10:51:42;;;;;;;9.73;5.65;;;;;;;29.74;35.19;100909.88;4993563;28;20050;-77
2023/06/16 10:54:09;;;;;;;7.43;5.97;;;;;;;28.60;34.99;100899.53;4991370;28;20474;-77
2023/06/16 10:57:02;;;;;;;6.40;5.47;;;;;;;28.47;34.91;100904.66;4992718;28;20085;-79
2023/06/16 10:59:29;;;;;;;6.93;5.57;;;;;;;28.82;35.62;100906.59;5003017;28;20046;-78
2023/06/16 11:01:57;;;;;;;7.72;5.70;;;;;;;29.18;35.27;100910.84;5012613;28;20132;-78
2023/06/16 11:04:24;;;;;;;12.63;6.05;;;;;;;28.84;35.45;100912.47;5013839;28;20045;-77
2023/06/16 11:07:08;;;;;;;7.72;6.00;;;;;;;27.99;35.35;100912.88;4995367;28;20118;-77
2023/06/16 11:09:35;;;;;;;9.65;5.90;;;;;;;27.75;35.86;100911.72;4992821;28;20050;-77
2023/06/16 11:12:04;;;;;;;8.95;6.22;;;;;;;27.83;35.54;100900.47;5137684;23;20516;-80
2023/06/16 11:14:30;;;;;;;8.25;6.70;;;;;;;28.08;35.90;100907.78;4996579;28;20039;-81
2023/06/16 11:16:57;;;;;;;6.88;5.80;;;;;;;28.32;35.50;100903.56;4990945;28;20055;-80
2023/06/16 11:19:24;;;;;;;9.20;6.10;;;;;;;28.36;35.47;100903.81;4991194;28;20137;-79
2023/06/16 11:21:50;;;;;;;10.23;6.00;;;;;;;28.89;35.24;100907.09;4997079;28;20133;-77
2023/06/16 11:24:19;;;;;;;8.63;5.70;;;;;;;28.54;34.40;100900.63;4997361;28;20137;-80
2023/06/16 11:26:46;;;;;;;14.70;5.78;;;;;;;28.31;34.77;100901.97;4997642;28;20552;-79